sensor_id;sensor_type;location;lat;lon;timestamp;P1;durP1;ratioP1;P2;durP2;ratioP2
6053;SDS011;3055;50.886;14.814;2024-02-21T00:01:57;13.70;;;6.27;;
6053;SDS011;3055;50.886;14.814;2024-02-21T00:04:24;15.27;;;5.83;;
6053;SDS011;3055;50.886;14.814;2024-02-21T00:06:51;19.33;;;5.80;;
6053;SDS011;3055;50.886;14.814;2024-02-21T00:09:18;10.10;;;5.13;;
6053;SDS011;3055;50.886;14.814;2024-02-21T00:11:46;20.80;;;5.40;;
6053;SDS011;3055;50.886;14.814;2024-02-21T00:14:14;12.17;;;5.17;;
6053;SDS011;3055;50.886;14.814;2024-02-21T00:16:41;10.77;;;5.00;;
6053;SDS011;3055;50.886;14.814;2024-02-21T00:19:08;11.93;;;5.37;;
6053;SDS011;3055;50.886;14.814;2024-02-21T00:21:35;10.90;;;4.90;;
6053;SDS011;3055;50.886;14.814;2024-02-21T00:24:02;16.33;;;5.30;;
6053;SDS011;3055;50.886;14.814;2024-02-21T00:26:29;9.00;;;4.87;;
6053;SDS011;3055;50.886;14.814;2024-02-21T00:28:57;14.23;;;5.23;;
6053;SDS011;3055;50.886;14.814;2024-02-21T00:31:24;18.67;;;5.83;;
6053;SDS011;3055;50.886;14.814;2024-02-21T00:33:51;11.03;;;4.53;;
6053;SDS011;3055;50.886;14.814;2024-02-21T00:36:18;13.50;;;5.33;;
6053;SDS011;3055;50.886;14.814;2024-02-21T00:38:45;12.13;;;5.33;;
6053;SDS011;3055;50.886;14.814;2024-02-21T00:41:12;17.57;;;4.83;;
6053;SDS011;3055;50.886;14.814;2024-02-21T00:43:39;13.57;;;5.17;;
6053;SDS011;3055;50.886;14.814;2024-02-21T00:46:08;10.47;;;5.20;;
6053;SDS011;3055;50.886;14.814;2024-02-21T00:48:35;13.93;;;5.10;;
6053;SDS011;3055;50.886;14.814;2024-02-21T00:51:02;13.90;;;4.63;;
6053;SDS011;3055;50.886;14.814;2024-02-21T00:53:30;13.07;;;5.23;;
6053;SDS011;3055;50.886;14.814;2024-02-21T00:55:57;13.27;;;4.70;;
6053;SDS011;3055;50.886;14.814;2024-02-21T00:58:24;14.53;;;4.70;;
6053;SDS011;3055;50.886;14.814;2024-02-21T01:00:51;13.33;;;4.70;;
6053;SDS011;3055;50.886;14.814;2024-02-21T01:03:19;17.03;;;5.27;;
6053;SDS011;3055;50.886;14.814;2024-02-21T01:05:46;13.13;;;4.67;;
6053;SDS011;3055;50.886;14.814;2024-02-21T01:08:13;11.07;;;4.60;;
6053;SDS011;3055;50.886;14.814;2024-02-21T01:10:40;14.70;;;5.37;;
6053;SDS011;3055;50.886;14.814;2024-02-21T01:13:08;11.13;;;4.30;;
6053;SDS011;3055;50.886;14.814;2024-02-21T01:15:35;7.03;;;5.30;;
6053;SDS011;3055;50.886;14.814;2024-02-21T01:18:02;10.63;;;4.57;;
6053;SDS011;3055;50.886;14.814;2024-02-21T01:20:31;7.43;;;4.37;;
6053;SDS011;3055;50.886;14.814;2024-02-21T01:22:58;10.90;;;4.90;;
6053;SDS011;3055;50.886;14.814;2024-02-21T01:25:25;12.73;;;4.87;;
6053;SDS011;3055;50.886;14.814;2024-02-21T01:27:52;12.27;;;4.40;;
6053;SDS011;3055;50.886;14.814;2024-02-21T01:30:19;17.27;;;5.43;;
6053;SDS011;3055;50.886;14.814;2024-02-21T01:32:46;16.70;;;4.90;;
6053;SDS011;3055;50.886;14.814;2024-02-21T01:35:13;13.07;;;5.60;;
6053;SDS011;3055;50.886;14.814;2024-02-21T01:37:42;12.70;;;4.90;;
6053;SDS011;3055;50.886;14.814;2024-02-21T01:40:09;10.80;;;4.60;;
6053;SDS011;3055;50.886;14.814;2024-02-21T01:42:38;12.97;;;4.93;;
6053;SDS011;3055;50.886;14.814;2024-02-21T01:45:06;10.87;;;4.43;;
6053;SDS011;3055;50.886;14.814;2024-02-21T01:47:33;12.43;;;4.67;;
6053;SDS011;3055;50.886;14.814;2024-02-21T01:50:01;10.97;;;5.10;;
6053;SDS011;3055;50.886;14.814;2024-02-21T01:52:29;12.17;;;5.10;;
6053;SDS011;3055;50.886;14.814;2024-02-21T01:54:58;10.97;;;5.03;;
6053;SDS011;3055;50.886;14.814;2024-02-21T01:57:26;11.97;;;5.23;;
6053;SDS011;3055;50.886;14.814;2024-02-21T01:59:54;12.97;;;5.37;;
6053;SDS011;3055;50.886;14.814;2024-02-21T02:02:21;8.23;;;4.37;;
6053;SDS011;3055;50.886;14.814;2024-02-21T02:04:48;10.80;;;4.67;;
6053;SDS011;3055;50.886;14.814;2024-02-21T02:07:15;17.07;;;4.97;;
6053;SDS011;3055;50.886;14.814;2024-02-21T02:09:42;11.37;;;4.70;;
6053;SDS011;3055;50.886;14.814;2024-02-21T02:12:11;14.17;;;5.70;;
6053;SDS011;3055;50.886;14.814;2024-02-21T02:14:38;15.87;;;4.93;;
6053;SDS011;3055;50.886;14.814;2024-02-21T02:17:05;12.60;;;4.73;;
6053;SDS011;3055;50.886;14.814;2024-02-21T02:19:32;10.67;;;4.80;;
6053;SDS011;3055;50.886;14.814;2024-02-21T02:22:00;14.60;;;4.60;;
6053;SDS011;3055;50.886;14.814;2024-02-21T02:24:35;10.43;;;4.97;;
6053;SDS011;3055;50.886;14.814;2024-02-21T02:27:02;10.67;;;5.03;;
6053;SDS011;3055;50.886;14.814;2024-02-21T02:29:31;12.73;;;5.13;;
6053;SDS011;3055;50.886;14.814;2024-02-21T02:31:59;11.13;;;4.73;;
6053;SDS011;3055;50.886;14.814;2024-02-21T02:34:26;14.23;;;4.30;;
6053;SDS011;3055;50.886;14.814;2024-02-21T02:36:53;10.87;;;5.20;;
6053;SDS011;3055;50.886;14.814;2024-02-21T02:39:20;10.00;;;4.70;;
6053;SDS011;3055;50.886;14.814;2024-02-21T02:41:49;11.23;;;5.17;;
6053;SDS011;3055;50.886;14.814;2024-02-21T02:44:16;14.97;;;4.87;;
6053;SDS011;3055;50.886;14.814;2024-02-21T02:46:43;12.80;;;4.50;;
6053;SDS011;3055;50.886;14.814;2024-02-21T02:49:10;10.50;;;4.77;;
6053;SDS011;3055;50.886;14.814;2024-02-21T02:51:37;12.90;;;4.87;;
6053;SDS011;3055;50.886;14.814;2024-02-21T02:54:07;8.33;;;4.30;;
6053;SDS011;3055;50.886;14.814;2024-02-21T02:56:34;11.17;;;5.03;;
6053;SDS011;3055;50.886;14.814;2024-02-21T02:59:03;11.47;;;5.00;;
6053;SDS011;3055;50.886;14.814;2024-02-21T03:01:33;9.77;;;4.07;;
6053;SDS011;3055;50.886;14.814;2024-02-21T03:04:01;14.27;;;5.20;;
6053;SDS011;3055;50.886;14.814;2024-02-21T03:06:28;10.60;;;4.87;;
6053;SDS011;3055;50.886;14.814;2024-02-21T03:08:55;11.37;;;4.70;;
6053;SDS011;3055;50.886;14.814;2024-02-21T03:11:22;12.50;;;4.80;;
6053;SDS011;3055;50.886;14.814;2024-02-21T03:13:54;12.43;;;4.97;;
6053;SDS011;3055;50.886;14.814;2024-02-21T03:16:23;9.23;;;4.70;;
6053;SDS011;3055;50.886;14.814;2024-02-21T03:18:50;12.30;;;4.97;;
6053;SDS011;3055;50.886;14.814;2024-02-21T03:21:17;14.87;;;5.47;;
6053;SDS011;3055;50.886;14.814;2024-02-21T03:23:44;14.10;;;5.97;;
6053;SDS011;3055;50.886;14.814;2024-02-21T03:26:11;13.87;;;5.27;;
6053;SDS011;3055;50.886;14.814;2024-02-21T03:28:42;12.60;;;5.53;;
6053;SDS011;3055;50.886;14.814;2024-02-21T03:31:10;17.63;;;5.30;;
6053;SDS011;3055;50.886;14.814;2024-02-21T03:33:39;12.50;;;5.33;;
6053;SDS011;3055;50.886;14.814;2024-02-21T03:36:06;10.40;;;4.97;;
6053;SDS011;3055;50.886;14.814;2024-02-21T03:38:38;14.43;;;5.17;;
6053;SDS011;3055;50.886;14.814;2024-02-21T03:41:06;11.63;;;4.40;;
6053;SDS011;3055;50.886;14.814;2024-02-21T03:43:33;10.50;;;4.53;;
6053;SDS011;3055;50.886;14.814;2024-02-21T03:46:00;13.27;;;5.30;;
6053;SDS011;3055;50.886;14.814;2024-02-21T03:48:27;10.50;;;5.07;;
6053;SDS011;3055;50.886;14.814;2024-02-21T03:50:55;11.43;;;4.93;;
6053;SDS011;3055;50.886;14.814;2024-02-21T03:53:22;14.73;;;5.53;;
6053;SDS011;3055;50.886;14.814;2024-02-21T03:55:49;11.33;;;5.13;;
6053;SDS011;3055;50.886;14.814;2024-02-21T03:58:16;13.90;;;6.10;;
6053;SDS011;3055;50.886;14.814;2024-02-21T04:00:43;16.63;;;5.40;;
6053;SDS011;3055;50.886;14.814;2024-02-21T04:03:10;10.07;;;4.83;;
6053;SDS011;3055;50.886;14.814;2024-02-21T04:05:37;12.93;;;4.97;;
6053;SDS011;3055;50.886;14.814;2024-02-21T04:08:06;12.47;;;5.10;;
6053;SDS011;3055;50.886;14.814;2024-02-21T04:10:33;9.73;;;4.53;;
6053;SDS011;3055;50.886;14.814;2024-02-21T04:13:00;7.63;;;5.03;;
6053;SDS011;3055;50.886;14.814;2024-02-21T04:15:28;12.90;;;5.30;;
6053;SDS011;3055;50.886;14.814;2024-02-21T04:17:55;12.30;;;5.33;;
6053;SDS011;3055;50.886;14.814;2024-02-21T04:20:22;11.70;;;5.47;;
6053;SDS011;3055;50.886;14.814;2024-02-21T04:22:49;11.67;;;5.27;;
6053;SDS011;3055;50.886;14.814;2024-02-21T04:25:17;10.27;;;4.77;;
6053;SDS011;3055;50.886;14.814;2024-02-21T04:27:45;14.77;;;5.47;;
6053;SDS011;3055;50.886;14.814;2024-02-21T04:30:12;10.63;;;4.87;;
6053;SDS011;3055;50.886;14.814;2024-02-21T04:32:40;15.20;;;5.77;;
6053;SDS011;3055;50.886;14.814;2024-02-21T04:35:07;11.83;;;5.07;;
6053;SDS011;3055;50.886;14.814;2024-02-21T04:37:35;9.63;;;4.80;;
6053;SDS011;3055;50.886;14.814;2024-02-21T04:40:02;10.03;;;5.27;;
6053;SDS011;3055;50.886;14.814;2024-02-21T04:42:30;8.67;;;4.87;;
6053;SDS011;3055;50.886;14.814;2024-02-21T04:44:57;11.03;;;4.87;;
6053;SDS011;3055;50.886;14.814;2024-02-21T04:47:24;20.27;;;6.03;;
6053;SDS011;3055;50.886;14.814;2024-02-21T04:49:51;10.33;;;5.40;;
6053;SDS011;3055;50.886;14.814;2024-02-21T04:52:18;14.00;;;5.47;;
6053;SDS011;3055;50.886;14.814;2024-02-21T04:54:45;12.20;;;5.70;;
6053;SDS011;3055;50.886;14.814;2024-02-21T04:57:13;13.20;;;4.70;;
6053;SDS011;3055;50.886;14.814;2024-02-21T04:59:43;10.87;;;5.83;;
6053;SDS011;3055;50.886;14.814;2024-02-21T05:02:10;9.77;;;5.23;;
6053;SDS011;3055;50.886;14.814;2024-02-21T05:04:38;12.23;;;5.47;;
6053;SDS011;3055;50.886;14.814;2024-02-21T05:07:06;12.27;;;4.93;;
6053;SDS011;3055;50.886;14.814;2024-02-21T05:09:33;8.97;;;4.93;;
6053;SDS011;3055;50.886;14.814;2024-02-21T05:12:00;8.43;;;4.73;;
6053;SDS011;3055;50.886;14.814;2024-02-21T05:14:27;9.70;;;4.50;;
6053;SDS011;3055;50.886;14.814;2024-02-21T05:16:56;10.33;;;4.70;;
6053;SDS011;3055;50.886;14.814;2024-02-21T05:19:23;10.07;;;5.07;;
6053;SDS011;3055;50.886;14.814;2024-02-21T05:21:50;13.97;;;5.47;;
6053;SDS011;3055;50.886;14.814;2024-02-21T05:24:17;8.87;;;5.10;;
6053;SDS011;3055;50.886;14.814;2024-02-21T05:26:44;7.93;;;4.87;;
6053;SDS011;3055;50.886;14.814;2024-02-21T05:29:11;13.10;;;5.27;;
6053;SDS011;3055;50.886;14.814;2024-02-21T05:31:55;12.77;;;5.47;;
6053;SDS011;3055;50.886;14.814;2024-02-21T05:34:23;13.33;;;6.37;;
6053;SDS011;3055;50.886;14.814;2024-02-21T05:36:51;10.83;;;5.00;;
6053;SDS011;3055;50.886;14.814;2024-02-21T05:39:18;13.57;;;6.33;;
6053;SDS011;3055;50.886;14.814;2024-02-21T05:41:48;11.37;;;5.60;;
6053;SDS011;3055;50.886;14.814;2024-02-21T05:44:15;12.73;;;5.80;;
6053;SDS011;3055;50.886;14.814;2024-02-21T05:46:42;15.20;;;5.77;;
6053;SDS011;3055;50.886;14.814;2024-02-21T05:49:11;14.23;;;5.77;;
6053;SDS011;3055;50.886;14.814;2024-02-21T05:51:39;9.63;;;4.87;;
6053;SDS011;3055;50.886;14.814;2024-02-21T05:54:06;11.63;;;5.07;;
6053;SDS011;3055;50.886;14.814;2024-02-21T05:56:33;13.33;;;5.40;;
6053;SDS011;3055;50.886;14.814;2024-02-21T05:59:00;17.20;;;5.77;;
6053;SDS011;3055;50.886;14.814;2024-02-21T06:01:27;13.63;;;5.03;;
6053;SDS011;3055;50.886;14.814;2024-02-21T06:03:54;10.93;;;5.23;;
6053;SDS011;3055;50.886;14.814;2024-02-21T06:06:23;9.30;;;5.13;;
6053;SDS011;3055;50.886;14.814;2024-02-21T06:08:50;15.27;;;5.93;;
6053;SDS011;3055;50.886;14.814;2024-02-21T06:11:17;13.33;;;6.30;;
6053;SDS011;3055;50.886;14.814;2024-02-21T06:13:44;12.20;;;6.03;;
6053;SDS011;3055;50.886;14.814;2024-02-21T06:16:11;10.90;;;5.33;;
6053;SDS011;3055;50.886;14.814;2024-02-21T06:18:38;8.83;;;5.07;;
6053;SDS011;3055;50.886;14.814;2024-02-21T06:21:05;12.90;;;5.37;;
6053;SDS011;3055;50.886;14.814;2024-02-21T06:23:33;9.80;;;5.00;;
6053;SDS011;3055;50.886;14.814;2024-02-21T06:26:03;12.30;;;6.03;;
6053;SDS011;3055;50.886;14.814;2024-02-21T06:28:30;16.40;;;5.40;;
6053;SDS011;3055;50.886;14.814;2024-02-21T06:30:57;14.07;;;5.73;;
6053;SDS011;3055;50.886;14.814;2024-02-21T06:33:24;11.83;;;5.70;;
6053;SDS011;3055;50.886;14.814;2024-02-21T06:35:53;11.53;;;5.30;;
6053;SDS011;3055;50.886;14.814;2024-02-21T06:38:20;10.37;;;5.50;;
6053;SDS011;3055;50.886;14.814;2024-02-21T06:40:48;13.00;;;5.47;;
6053;SDS011;3055;50.886;14.814;2024-02-21T06:43:17;11.23;;;5.20;;
6053;SDS011;3055;50.886;14.814;2024-02-21T06:45:45;13.50;;;6.40;;
6053;SDS011;3055;50.886;14.814;2024-02-21T06:48:16;12.73;;;5.50;;
6053;SDS011;3055;50.886;14.814;2024-02-21T06:50:44;16.23;;;5.90;;
6053;SDS011;3055;50.886;14.814;2024-02-21T06:53:11;13.27;;;5.93;;
6053;SDS011;3055;50.886;14.814;2024-02-21T06:55:39;12.87;;;5.43;;
6053;SDS011;3055;50.886;14.814;2024-02-21T06:58:07;11.50;;;6.10;;
6053;SDS011;3055;50.886;14.814;2024-02-21T07:00:37;10.77;;;5.03;;
6053;SDS011;3055;50.886;14.814;2024-02-21T07:03:04;11.43;;;5.33;;
6053;SDS011;3055;50.886;14.814;2024-02-21T07:05:32;14.43;;;5.63;;
6053;SDS011;3055;50.886;14.814;2024-02-21T07:07:59;11.37;;;5.37;;
6053;SDS011;3055;50.886;14.814;2024-02-21T07:10:26;7.60;;;5.47;;
6053;SDS011;3055;50.886;14.814;2024-02-21T07:12:54;10.73;;;5.20;;
6053;SDS011;3055;50.886;14.814;2024-02-21T07:15:22;11.10;;;5.23;;
6053;SDS011;3055;50.886;14.814;2024-02-21T07:17:52;9.73;;;5.70;;
6053;SDS011;3055;50.886;14.814;2024-02-21T07:20:19;17.43;;;5.90;;
6053;SDS011;3055;50.886;14.814;2024-02-21T07:22:46;12.93;;;5.43;;
6053;SDS011;3055;50.886;14.814;2024-02-21T07:25:13;10.53;;;6.07;;
6053;SDS011;3055;50.886;14.814;2024-02-21T07:27:40;10.23;;;5.70;;
6053;SDS011;3055;50.886;14.814;2024-02-21T07:30:08;12.70;;;5.30;;
6053;SDS011;3055;50.886;14.814;2024-02-21T07:32:37;11.70;;;5.80;;
6053;SDS011;3055;50.886;14.814;2024-02-21T07:35:05;10.67;;;5.40;;
6053;SDS011;3055;50.886;14.814;2024-02-21T07:37:35;11.93;;;5.30;;
6053;SDS011;3055;50.886;14.814;2024-02-21T07:40:04;12.50;;;6.23;;
6053;SDS011;3055;50.886;14.814;2024-02-21T07:42:32;16.10;;;7.97;;
6053;SDS011;3055;50.886;14.814;2024-02-21T07:45:00;16.80;;;6.73;;
6053;SDS011;3055;50.886;14.814;2024-02-21T07:47:28;9.23;;;5.37;;
6053;SDS011;3055;50.886;14.814;2024-02-21T07:49:56;12.50;;;5.37;;
6053;SDS011;3055;50.886;14.814;2024-02-21T07:52:24;12.37;;;5.37;;
6053;SDS011;3055;50.886;14.814;2024-02-21T07:54:51;11.20;;;5.07;;
6053;SDS011;3055;50.886;14.814;2024-02-21T07:57:18;14.07;;;5.67;;
6053;SDS011;3055;50.886;14.814;2024-02-21T07:59:45;12.70;;;6.00;;
6053;SDS011;3055;50.886;14.814;2024-02-21T08:02:13;12.93;;;5.60;;
6053;SDS011;3055;50.886;14.814;2024-02-21T08:04:40;12.77;;;6.23;;
6053;SDS011;3055;50.886;14.814;2024-02-21T08:07:09;10.53;;;5.60;;
6053;SDS011;3055;50.886;14.814;2024-02-21T08:09:36;8.87;;;6.03;;
6053;SDS011;3055;50.886;14.814;2024-02-21T08:12:06;8.97;;;5.97;;
6053;SDS011;3055;50.886;14.814;2024-02-21T08:14:33;19.23;;;8.40;;
6053;SDS011;3055;50.886;14.814;2024-02-21T08:17:00;16.07;;;6.30;;
6053;SDS011;3055;50.886;14.814;2024-02-21T08:19:29;12.87;;;6.37;;
6053;SDS011;3055;50.886;14.814;2024-02-21T08:21:56;12.93;;;6.23;;
6053;SDS011;3055;50.886;14.814;2024-02-21T08:24:24;14.07;;;6.33;;
6053;SDS011;3055;50.886;14.814;2024-02-21T08:26:51;16.13;;;5.80;;
6053;SDS011;3055;50.886;14.814;2024-02-21T08:29:18;8.77;;;5.60;;
6053;SDS011;3055;50.886;14.814;2024-02-21T08:31:45;12.30;;;5.73;;
6053;SDS011;3055;50.886;14.814;2024-02-21T08:34:13;16.73;;;6.10;;
6053;SDS011;3055;50.886;14.814;2024-02-21T08:36:40;14.00;;;6.90;;
6053;SDS011;3055;50.886;14.814;2024-02-21T08:39:07;9.77;;;6.43;;
6053;SDS011;3055;50.886;14.814;2024-02-21T08:41:36;12.13;;;6.43;;
6053;SDS011;3055;50.886;14.814;2024-02-21T08:44:03;14.13;;;6.77;;
6053;SDS011;3055;50.886;14.814;2024-02-21T08:46:31;10.30;;;6.17;;
6053;SDS011;3055;50.886;14.814;2024-02-21T08:48:58;13.67;;;6.33;;
6053;SDS011;3055;50.886;14.814;2024-02-21T08:51:25;13.23;;;6.40;;
6053;SDS011;3055;50.886;14.814;2024-02-21T08:53:52;20.50;;;6.90;;
6053;SDS011;3055;50.886;14.814;2024-02-21T08:56:20;13.03;;;6.00;;
6053;SDS011;3055;50.886;14.814;2024-02-21T08:58:49;15.13;;;6.27;;
6053;SDS011;3055;50.886;14.814;2024-02-21T09:01:16;17.67;;;7.50;;
6053;SDS011;3055;50.886;14.814;2024-02-21T09:03:43;10.57;;;5.97;;
6053;SDS011;3055;50.886;14.814;2024-02-21T09:06:11;14.40;;;6.40;;
6053;SDS011;3055;50.886;14.814;2024-02-21T09:08:39;13.40;;;5.87;;
6053;SDS011;3055;50.886;14.814;2024-02-21T09:11:06;12.27;;;6.37;;
6053;SDS011;3055;50.886;14.814;2024-02-21T09:13:33;14.87;;;6.47;;
6053;SDS011;3055;50.886;14.814;2024-02-21T09:16:02;11.50;;;6.37;;
6053;SDS011;3055;50.886;14.814;2024-02-21T09:18:31;16.00;;;6.83;;
6053;SDS011;3055;50.886;14.814;2024-02-21T09:20:58;14.40;;;7.57;;
6053;SDS011;3055;50.886;14.814;2024-02-21T09:23:25;15.00;;;6.83;;
6053;SDS011;3055;50.886;14.814;2024-02-21T09:25:52;12.80;;;7.17;;
6053;SDS011;3055;50.886;14.814;2024-02-21T09:28:20;12.43;;;6.17;;
6053;SDS011;3055;50.886;14.814;2024-02-21T09:30:47;14.27;;;7.47;;
6053;SDS011;3055;50.886;14.814;2024-02-21T09:33:16;14.07;;;7.10;;
6053;SDS011;3055;50.886;14.814;2024-02-21T09:35:43;13.00;;;6.80;;
6053;SDS011;3055;50.886;14.814;2024-02-21T09:38:10;15.90;;;7.00;;
6053;SDS011;3055;50.886;14.814;2024-02-21T09:40:37;14.07;;;6.53;;
6053;SDS011;3055;50.886;14.814;2024-02-21T09:43:07;10.17;;;7.10;;
6053;SDS011;3055;50.886;14.814;2024-02-21T09:45:34;12.03;;;7.03;;
6053;SDS011;3055;50.886;14.814;2024-02-21T09:48:14;10.37;;;6.47;;
6053;SDS011;3055;50.886;14.814;2024-02-21T09:50:52;10.73;;;6.77;;
6053;SDS011;3055;50.886;14.814;2024-02-21T09:53:21;14.27;;;7.37;;
6053;SDS011;3055;50.886;14.814;2024-02-21T09:55:51;15.73;;;6.97;;
6053;SDS011;3055;50.886;14.814;2024-02-21T09:58:18;13.23;;;7.20;;
6053;SDS011;3055;50.886;14.814;2024-02-21T10:00:46;12.43;;;6.83;;
6053;SDS011;3055;50.886;14.814;2024-02-21T10:03:13;12.90;;;7.83;;
6053;SDS011;3055;50.886;14.814;2024-02-21T10:05:46;13.73;;;6.67;;
6053;SDS011;3055;50.886;14.814;2024-02-21T10:08:15;13.03;;;7.20;;
6053;SDS011;3055;50.886;14.814;2024-02-21T10:10:42;14.37;;;7.33;;
6053;SDS011;3055;50.886;14.814;2024-02-21T10:13:10;12.00;;;7.37;;
6053;SDS011;3055;50.886;14.814;2024-02-21T10:15:37;10.47;;;7.43;;
6053;SDS011;3055;50.886;14.814;2024-02-21T10:18:04;18.13;;;8.23;;
6053;SDS011;3055;50.886;14.814;2024-02-21T10:20:32;12.07;;;6.87;;
6053;SDS011;3055;50.886;14.814;2024-02-21T10:23:01;10.97;;;6.20;;
6053;SDS011;3055;50.886;14.814;2024-02-21T10:25:33;10.50;;;6.80;;
6053;SDS011;3055;50.886;14.814;2024-02-21T10:28:00;11.47;;;7.23;;
6053;SDS011;3055;50.886;14.814;2024-02-21T10:30:29;13.63;;;6.67;;
6053;SDS011;3055;50.886;14.814;2024-02-21T10:32:56;10.60;;;6.80;;
6053;SDS011;3055;50.886;14.814;2024-02-21T10:35:26;10.37;;;6.03;;
6053;SDS011;3055;50.886;14.814;2024-02-21T10:37:54;10.40;;;5.87;;
6053;SDS011;3055;50.886;14.814;2024-02-21T10:40:24;14.87;;;6.17;;
6053;SDS011;3055;50.886;14.814;2024-02-21T10:42:54;13.00;;;6.10;;
6053;SDS011;3055;50.886;14.814;2024-02-21T10:45:28;13.50;;;6.20;;
6053;SDS011;3055;50.886;14.814;2024-02-21T10:48:01;10.73;;;6.03;;
6053;SDS011;3055;50.886;14.814;2024-02-21T10:50:36;14.63;;;8.37;;
6053;SDS011;3055;50.886;14.814;2024-02-21T10:53:13;11.13;;;6.23;;
6053;SDS011;3055;50.886;14.814;2024-02-21T10:55:53;10.67;;;6.60;;
6053;SDS011;3055;50.886;14.814;2024-02-21T10:58:25;13.10;;;6.43;;
6053;SDS011;3055;50.886;14.814;2024-02-21T11:00:53;13.77;;;7.27;;
6053;SDS011;3055;50.886;14.814;2024-02-21T11:03:21;11.67;;;7.33;;
6053;SDS011;3055;50.886;14.814;2024-02-21T11:05:48;11.97;;;6.17;;
6053;SDS011;3055;50.886;14.814;2024-02-21T11:08:16;12.30;;;6.67;;
6053;SDS011;3055;50.886;14.814;2024-02-21T11:10:45;6.97;;;5.37;;
6053;SDS011;3055;50.886;14.814;2024-02-21T11:13:14;13.70;;;6.00;;
6053;SDS011;3055;50.886;14.814;2024-02-21T11:15:41;10.87;;;5.80;;
6053;SDS011;3055;50.886;14.814;2024-02-21T11:18:08;13.63;;;10.13;;
6053;SDS011;3055;50.886;14.814;2024-02-21T11:20:36;27.53;;;21.80;;
6053;SDS011;3055;50.886;14.814;2024-02-21T11:23:04;22.03;;;20.10;;
6053;SDS011;3055;50.886;14.814;2024-02-21T11:25:31;9.83;;;5.93;;
6053;SDS011;3055;50.886;14.814;2024-02-21T11:27:59;11.57;;;6.07;;
6053;SDS011;3055;50.886;14.814;2024-02-21T11:30:29;12.90;;;6.50;;
6053;SDS011;3055;50.886;14.814;2024-02-21T11:33:01;15.27;;;6.03;;
6053;SDS011;3055;50.886;14.814;2024-02-21T11:35:32;8.97;;;5.80;;
6053;SDS011;3055;50.886;14.814;2024-02-21T11:38:09;12.17;;;6.63;;
6053;SDS011;3055;50.886;14.814;2024-02-21T11:40:41;10.37;;;7.13;;
6053;SDS011;3055;50.886;14.814;2024-02-21T11:43:09;17.03;;;9.63;;
6053;SDS011;3055;50.886;14.814;2024-02-21T11:45:38;57.97;;;27.77;;
6053;SDS011;3055;50.886;14.814;2024-02-21T11:48:05;40.73;;;19.83;;
6053;SDS011;3055;50.886;14.814;2024-02-21T11:50:34;18.23;;;7.70;;
6053;SDS011;3055;50.886;14.814;2024-02-21T11:53:01;15.87;;;7.23;;
6053;SDS011;3055;50.886;14.814;2024-02-21T11:55:29;8.70;;;6.03;;
6053;SDS011;3055;50.886;14.814;2024-02-21T11:57:56;10.70;;;6.27;;
6053;SDS011;3055;50.886;14.814;2024-02-21T12:00:23;10.30;;;5.30;;
6053;SDS011;3055;50.886;14.814;2024-02-21T12:02:53;8.03;;;5.23;;
6053;SDS011;3055;50.886;14.814;2024-02-21T12:05:26;14.53;;;5.93;;
6053;SDS011;3055;50.886;14.814;2024-02-21T12:07:54;13.17;;;6.00;;
6053;SDS011;3055;50.886;14.814;2024-02-21T12:10:23;11.20;;;5.40;;
6053;SDS011;3055;50.886;14.814;2024-02-21T12:12:52;12.20;;;5.37;;
6053;SDS011;3055;50.886;14.814;2024-02-21T12:15:23;8.43;;;4.87;;
6053;SDS011;3055;50.886;14.814;2024-02-21T12:17:50;11.37;;;5.47;;
6053;SDS011;3055;50.886;14.814;2024-02-21T12:20:20;8.50;;;5.03;;
6053;SDS011;3055;50.886;14.814;2024-02-21T12:22:48;8.10;;;5.37;;
6053;SDS011;3055;50.886;14.814;2024-02-21T12:25:16;9.83;;;5.53;;
6053;SDS011;3055;50.886;14.814;2024-02-21T12:27:44;11.63;;;5.30;;
6053;SDS011;3055;50.886;14.814;2024-02-21T12:30:12;10.93;;;5.00;;
6053;SDS011;3055;50.886;14.814;2024-02-21T12:32:39;9.90;;;5.13;;
6053;SDS011;3055;50.886;14.814;2024-02-21T12:35:06;8.10;;;4.90;;
6053;SDS011;3055;50.886;14.814;2024-02-21T12:37:35;7.00;;;4.67;;
6053;SDS011;3055;50.886;14.814;2024-02-21T12:40:03;10.23;;;5.47;;
6053;SDS011;3055;50.886;14.814;2024-02-21T12:42:32;8.77;;;4.73;;
6053;SDS011;3055;50.886;14.814;2024-02-21T12:44:59;13.73;;;5.30;;
6053;SDS011;3055;50.886;14.814;2024-02-21T12:47:28;8.37;;;4.70;;
6053;SDS011;3055;50.886;14.814;2024-02-21T12:49:55;12.17;;;5.30;;
6053;SDS011;3055;50.886;14.814;2024-02-21T12:52:22;11.53;;;5.30;;
6053;SDS011;3055;50.886;14.814;2024-02-21T12:54:51;10.17;;;4.83;;
6053;SDS011;3055;50.886;14.814;2024-02-21T12:57:21;8.37;;;4.63;;
6053;SDS011;3055;50.886;14.814;2024-02-21T12:59:48;9.13;;;4.37;;
6053;SDS011;3055;50.886;14.814;2024-02-21T13:02:16;8.37;;;4.77;;
6053;SDS011;3055;50.886;14.814;2024-02-21T13:04:43;5.90;;;4.60;;
6053;SDS011;3055;50.886;14.814;2024-02-21T13:07:10;9.47;;;5.70;;
6053;SDS011;3055;50.886;14.814;2024-02-21T13:09:37;11.00;;;5.97;;
6053;SDS011;3055;50.886;14.814;2024-02-21T13:12:07;12.80;;;5.53;;
6053;SDS011;3055;50.886;14.814;2024-02-21T13:14:34;9.13;;;4.97;;
6053;SDS011;3055;50.886;14.814;2024-02-21T13:17:04;9.50;;;4.53;;
6053;SDS011;3055;50.886;14.814;2024-02-21T13:19:31;11.00;;;4.43;;
6053;SDS011;3055;50.886;14.814;2024-02-21T13:21:58;9.17;;;4.83;;
6053;SDS011;3055;50.886;14.814;2024-02-21T13:24:25;11.30;;;4.67;;
6053;SDS011;3055;50.886;14.814;2024-02-21T13:26:52;9.60;;;4.80;;
6053;SDS011;3055;50.886;14.814;2024-02-21T13:29:21;10.67;;;5.10;;
6053;SDS011;3055;50.886;14.814;2024-02-21T13:31:48;7.83;;;4.50;;
6053;SDS011;3055;50.886;14.814;2024-02-21T13:34:16;8.43;;;5.10;;
6053;SDS011;3055;50.886;14.814;2024-02-21T13:36:43;9.77;;;4.40;;
6053;SDS011;3055;50.886;14.814;2024-02-21T13:39:10;6.40;;;4.27;;
6053;SDS011;3055;50.886;14.814;2024-02-21T13:41:40;7.53;;;4.13;;
6053;SDS011;3055;50.886;14.814;2024-02-21T13:44:08;8.10;;;4.27;;
6053;SDS011;3055;50.886;14.814;2024-02-21T13:46:37;8.60;;;4.50;;
6053;SDS011;3055;50.886;14.814;2024-02-21T13:49:04;9.20;;;5.03;;
6053;SDS011;3055;50.886;14.814;2024-02-21T13:51:32;11.10;;;5.03;;
6053;SDS011;3055;50.886;14.814;2024-02-21T13:54:01;5.47;;;4.03;;
6053;SDS011;3055;50.886;14.814;2024-02-21T13:56:29;9.07;;;5.40;;
6053;SDS011;3055;50.886;14.814;2024-02-21T13:58:57;10.37;;;4.40;;
6053;SDS011;3055;50.886;14.814;2024-02-21T14:01:25;10.03;;;4.30;;
6053;SDS011;3055;50.886;14.814;2024-02-21T14:03:54;6.00;;;4.10;;
6053;SDS011;3055;50.886;14.814;2024-02-21T14:06:21;10.37;;;4.93;;
6053;SDS011;3055;50.886;14.814;2024-02-21T14:08:48;9.43;;;4.87;;
6053;SDS011;3055;50.886;14.814;2024-02-21T14:11:15;7.70;;;3.70;;
6053;SDS011;3055;50.886;14.814;2024-02-21T14:13:42;7.87;;;4.70;;
6053;SDS011;3055;50.886;14.814;2024-02-21T14:16:10;7.57;;;3.83;;
6053;SDS011;3055;50.886;14.814;2024-02-21T14:18:38;7.53;;;4.00;;
6053;SDS011;3055;50.886;14.814;2024-02-21T14:21:08;7.43;;;4.07;;
6053;SDS011;3055;50.886;14.814;2024-02-21T14:23:36;9.43;;;4.10;;
6053;SDS011;3055;50.886;14.814;2024-02-21T14:26:04;6.53;;;3.93;;
6053;SDS011;3055;50.886;14.814;2024-02-21T14:28:31;8.37;;;4.37;;
6053;SDS011;3055;50.886;14.814;2024-02-21T14:30:59;6.83;;;4.77;;
6053;SDS011;3055;50.886;14.814;2024-02-21T14:33:28;8.50;;;4.90;;
6053;SDS011;3055;50.886;14.814;2024-02-21T14:35:56;8.73;;;4.40;;
6053;SDS011;3055;50.886;14.814;2024-02-21T14:38:24;6.77;;;4.07;;
6053;SDS011;3055;50.886;14.814;2024-02-21T14:40:52;8.73;;;3.60;;
6053;SDS011;3055;50.886;14.814;2024-02-21T14:43:19;10.17;;;4.43;;
6053;SDS011;3055;50.886;14.814;2024-02-21T14:45:46;5.63;;;4.00;;
6053;SDS011;3055;50.886;14.814;2024-02-21T14:48:13;6.70;;;3.90;;
6053;SDS011;3055;50.886;14.814;2024-02-21T14:50:40;8.47;;;4.30;;
6053;SDS011;3055;50.886;14.814;2024-02-21T14:53:08;9.33;;;4.20;;
6053;SDS011;3055;50.886;14.814;2024-02-21T14:55:37;10.17;;;4.13;;